Time;durP1;ratioP1;P1;durP2;ratioP2;P2;SDS_P1;SDS_P2;PMS_P1;PMS_P2;Temp;Humidity;BMP_temperature;BMP_pressure;BME280_temperature;BME280_humidity;BME280_pressure;Samples;Min_cycle;Max_cycle;Signal;HPM_P1;HPM_P2
2023/03/23 00:01:21;;;;;;;7.95;2.67;;;;;;;14.88;57.21;99257.69;6125675;23;20033;-86
2023/03/23 00:03:49;;;;;;;7.75;2.50;;;;;;;14.89;57.43;99262.03;6174780;23;20017;-86
2023/03/23 00:06:19;;;;;;;7.15;2.60;;;;;;;14.87;57.21;99253.34;6124982;23;20144;-86
2023/03/23 00:08:46;;;;;;;5.28;2.00;;;;;;;14.89;57.12;99265.53;6174269;23;20029;-86
2023/03/23 00:11:20;;;;;;;6.43;2.20;;;;;;;14.87;57.17;99262.19;6101484;23;20027;-86
2023/03/23 00:13:52;;;;;;;6.80;2.47;;;;;;;14.83;56.97;99260.06;6123216;23;20075;-86
2023/03/23 00:16:20;;;;;;;4.85;1.92;;;;;;;14.84;57.06;99262.56;6124916;23;20017;-87
2023/03/23 00:18:49;;;;;;;5.85;2.38;;;;;;;14.87;56.92;99261.38;6124942;23;20025;-87
2023/03/23 00:21:15;;;;;;;3.50;2.13;;;;;;;14.86;57.19;99263.22;6125607;23;20345;-86
2023/03/23 00:23:44;;;;;;;2.42;1.70;;;;;;;14.85;57.10;99256.19;6100803;23;20029;-86
2023/03/23 00:26:11;;;;;;;3.58;1.67;;;;;;;14.87;56.98;99256.84;6125973;23;20032;-86
2023/03/23 00:28:38;;;;;;;3.55;2.00;;;;;;;14.87;56.96;99248.84;6149391;23;20028;-87
2023/03/23 00:31:06;;;;;;;5.85;1.95;;;;;;;14.85;57.07;99239.31;6126085;23;20083;-87
2023/03/23 00:33:40;;;;;;;4.57;1.90;;;;;;;14.85;57.09;99237.47;6125617;23;20096;-86
2023/03/23 00:36:10;;;;;;;5.97;2.08;;;;;;;14.83;56.72;99236.81;6149202;23;20029;-86
2023/03/23 00:38:36;;;;;;;4.70;2.38;;;;;;;14.85;56.96;99232.13;6124520;23;20091;-87
2023/03/23 00:41:05;;;;;;;2.95;1.60;;;;;;;14.87;56.92;99223.94;6100885;23;20392;-87
2023/03/23 00:43:31;;;;;;;3.15;1.80;;;;;;;14.83;56.77;99231.47;6101168;23;20013;-87
2023/03/23 00:46:00;;;;;;;2.92;1.38;;;;;;;14.81;56.92;99225.50;6150235;23;22131;-87
2023/03/23 00:48:28;;;;;;;2.05;1.35;;;;;;;14.78;56.97;99215.13;6101131;23;20021;-86
2023/03/23 00:50:54;;;;;;;2.33;1.40;;;;;;;14.76;57.05;99215.34;6149412;23;20032;-88
2023/03/23 00:53:20;;;;;;;5.22;1.80;;;;;;;14.74;57.27;99219.19;6149977;23;20460;-86
2023/03/23 00:55:47;;;;;;;4.88;1.60;;;;;;;14.70;57.77;99220.53;6124175;23;20072;-87
2023/03/23 00:58:15;;;;;;;3.15;1.60;;;;;;;14.69;57.37;99213.56;6100659;23;20021;-86
2023/03/23 01:00:41;;;;;;;4.88;2.85;;;;;;;14.65;57.56;99206.88;6125536;23;20031;-86
2023/03/23 01:03:11;;;;;;;2.75;1.90;;;;;;;14.63;57.74;99209.75;6101136;23;20396;-87
2023/03/23 01:05:39;;;;;;;4.20;1.70;;;;;;;14.62;57.74;99209.91;6149390;23;20713;-86
2023/03/23 01:08:05;;;;;;;4.10;2.00;;;;;;;14.60;57.83;99209.25;6149316;23;20338;-87
2023/03/23 01:10:38;;;;;;;3.92;1.90;;;;;;;14.57;58.19;99209.63;6149411;23;20029;-87
2023/03/23 01:13:05;;;;;;;5.65;1.70;;;;;;;14.53;58.20;99201.13;6125931;23;20017;-88
2023/03/23 01:15:31;;;;;;;1.67;1.40;;;;;;;14.53;58.22;99207.31;6100974;23;20028;-88
2023/03/23 01:17:56;;;;;;;3.03;1.80;;;;;;;14.51;58.42;99208.47;6124239;23;20017;-87
2023/03/23 01:20:24;;;;;;;3.67;1.80;;;;;;;14.51;58.43;99206.63;6149476;23;20311;-86
2023/03/23 01:22:50;;;;;;;5.28;1.80;;;;;;;14.49;58.63;99195.25;6124107;23;20021;-87
2023/03/23 01:25:16;;;;;;;1.70;1.55;;;;;;;14.49;58.79;99199.78;6124468;23;20438;-87
2023/03/23 01:27:41;;;;;;;4.63;2.00;;;;;;;14.51;58.63;99197.78;6100897;23;20025;-87
2023/03/23 01:30:10;;;;;;;3.10;1.55;;;;;;;14.55;58.50;99199.09;6125843;23;20017;-86
2023/03/23 01:32:35;;;;;;;2.88;1.58;;;;;;;14.50;58.61;99194.28;6126863;23;20029;-86
2023/03/23 01:35:01;;;;;;;2.88;1.67;;;;;;;14.51;58.66;99189.75;6102205;23;20420;-87
2023/03/23 01:37:27;;;;;;;3.70;1.60;;;;;;;14.49;58.44;99189.09;6150822;23;20055;-87
2023/03/23 01:39:57;;;;;;;2.78;1.40;;;;;;;14.45;58.57;99188.63;6151685;23;20021;-88
2023/03/23 01:42:25;;;;;;;5.03;1.80;;;;;;;14.47;58.46;99183.09;6127764;23;20037;-87
2023/03/23 01:44:51;;;;;;;4.40;1.80;;;;;;;14.41;58.70;99181.97;6102685;23;20426;-87
2023/03/23 01:47:23;;;;;;;3.63;1.50;;;;;;;14.35;58.64;99185.34;6126960;23;20028;-87
2023/03/23 01:49:50;;;;;;;9.05;1.88;;;;;;;14.37;58.73;99171.81;6103552;23;20017;-87
2023/03/23 01:52:23;;;;;;;2.20;1.67;;;;;;;14.27;58.51;99175.56;6127174;23;20430;-87
2023/03/23 01:54:52;;;;;;;4.43;1.50;;;;;;;14.29;58.97;99173.50;6126874;23;20017;-87
2023/03/23 01:57:21;;;;;;;3.20;1.38;;;;;;;14.29;58.78;99172.69;6102471;23;20025;-88
2023/03/23 01:59:49;;;;;;;6.80;1.80;;;;;;;14.31;58.83;99182.19;6151609;23;20024;-87
2023/03/23 02:02:20;;;;;;;1.80;1.40;;;;;;;14.29;59.14;99167.34;6126708;23;20032;-88
2023/03/23 02:04:46;;;;;;;3.38;1.40;;;;;;;14.27;59.36;99180.03;6126560;23;20456;-88
2023/03/23 02:07:14;;;;;;;2.33;1.40;;;;;;;14.22;59.95;99169.06;6101758;23;20025;-88
2023/03/23 02:09:40;;;;;;;3.92;1.52;;;;;;;14.23;59.92;99176.91;6125835;23;20017;-87
2023/03/23 02:12:06;;;;;;;4.80;1.52;;;;;;;14.19;60.17;99161.41;6102458;23;20024;-87
2023/03/23 02:14:34;;;;;;;2.25;1.45;;;;;;;14.20;60.22;99171.91;6126411;23;20024;-87
2023/03/23 02:17:05;;;;;;;3.85;1.67;;;;;;;14.19;60.16;99158.72;6101496;23;20029;-87
2023/03/23 02:19:37;;;;;;;2.50;1.30;;;;;;;14.21;60.21;99162.06;6100069;23;20021;-88
2023/03/23 02:22:41;;;;;;;2.58;1.95;;;;;;;14.05;60.52;99158.47;6126201;23;20029;-87
2023/03/23 02:25:19;;;;;;;5.35;2.53;;;;;;;14.10;60.24;99148.09;6003790;23;20013;-87
2023/03/23 02:27:57;;;;;;;1.95;1.40;;;;;;;14.07;60.67;99145.78;6078586;23;20445;-87
2023/03/23 02:31:01;;;;;;;2.70;1.55;;;;;;;13.99;61.23;99139.66;6101161;23;20029;-87
2023/03/23 02:33:38;;;;;;;3.45;2.13;;;;;;;14.07;60.41;99128.94;6005413;23;20033;-87
2023/03/23 02:36:14;;;;;;;2.97;1.83;;;;;;;14.04;60.89;99131.94;6076720;23;20060;-86
2023/03/23 02:38:58;;;;;;;4.25;1.75;;;;;;;14.04;60.29;99130.13;6125634;23;20404;-86
2023/03/23 02:41:24;;;;;;;;;;;;;;;13.87;60.92;99123.22;6104008;23;20013;-86
2023/03/23 02:43:50;;;;;;;6.03;3.17;;;;;;;14.09;60.73;99113.56;6126564;23;19916;-85
2023/03/23 02:46:16;;;;;;;5.85;4.90;;;;;;;14.09;60.83;99117.09;6125947;23;20472;-86
2023/03/23 02:48:44;;;;;;;4.50;3.35;;;;;;;14.03;60.98;99115.09;6125529;23;20361;-86
2023/03/23 02:51:10;;;;;;;5.18;2.35;;;;;;;14.07;60.74;99121.75;6125074;23;20017;-86
2023/03/23 02:53:38;;;;;;;1.92;1.52;;;;;;;14.07;60.86;99121.75;6125773;23;20029;-86
2023/03/23 02:56:05;;;;;;;5.97;1.85;;;;;;;14.05;61.23;99129.09;6126689;23;20437;-87
2023/03/23 02:58:31;;;;;;;2.80;1.85;;;;;;;14.04;61.22;99123.94;6126167;23;20059;-87
2023/03/23 03:00:58;;;;;;;6.68;2.53;;;;;;;14.00;61.66;99122.63;6126103;23;20445;-86
2023/03/23 03:03:29;;;;;;;5.95;1.70;;;;;;;13.96;61.49;99126.66;6078304;23;20024;-88
2023/03/23 03:06:10;;;;;;;4.15;1.75;;;;;;;13.91;61.53;99119.16;6150408;23;20059;-87
2023/03/23 03:08:49;;;;;;;4.93;1.90;;;;;;;13.99;61.23;99112.94;6123754;23;20083;-87
2023/03/23 03:11:17;;;;;;;5.13;2.08;;;;;;;13.97;61.62;99115.81;6100054;23;20053;-87
2023/03/23 03:13:59;;;;;;;5.35;2.10;;;;;;;13.89;62.74;99115.84;6125467;23;20021;-87
2023/03/23 03:16:45;;;;;;;4.65;1.85;;;;;;;13.81;63.36;99111.38;6124024;23;20071;-87
2023/03/23 03:19:22;;;;;;;3.22;1.73;;;;;;;13.89;62.78;99108.69;6079476;23;20024;-87
2023/03/23 03:21:49;;;;;;;4.47;2.17;;;;;;;13.98;62.44;99119.31;6149947;23;20036;-87
2023/03/23 03:24:22;;;;;;;4.18;1.90;;;;;;;13.97;62.49;99106.94;6150031;23;20385;-86
2023/03/23 03:26:51;;;;;;;3.00;1.85;;;;;;;14.00;62.17;99106.63;6125515;23;20372;-86
2023/03/23 03:29:26;;;;;;;3.90;1.60;;;;;;;14.01;61.91;99106.44;6125888;23;20335;-86
2023/03/23 03:31:56;;;;;;;2.38;1.63;;;;;;;14.06;62.01;99106.72;6101501;23;20025;-87
2023/03/23 03:34:24;;;;;;;5.68;1.95;;;;;;;14.05;62.19;99107.75;6126680;23;20111;-87
2023/03/23 03:36:52;;;;;;;5.03;2.03;;;;;;;14.05;61.95;99104.25;6101099;23;20031;-87
2023/03/23 03:39:20;;;;;;;4.00;2.00;;;;;;;14.03;61.79;99100.94;6150455;23;20029;-87
2023/03/23 03:41:47;;;;;;;4.80;1.80;;;;;;;14.06;62.22;99097.91;6101874;23;20358;-88
2023/03/23 03:44:12;;;;;;;2.92;1.77;;;;;;;14.06;61.86;99093.38;6100323;23;20096;-87
2023/03/23 03:46:39;;;;;;;4.05;1.73;;;;;;;14.11;61.91;99096.34;6126212;23;20025;-87
2023/03/23 03:49:07;;;;;;;2.53;1.70;;;;;;;14.13;61.67;99098.03;6100801;23;20359;-86
2023/03/23 03:51:36;;;;;;;3.70;1.90;;;;;;;14.15;61.30;99093.34;6126366;23;20028;-86
2023/03/23 03:54:03;;;;;;;4.05;2.10;;;;;;;14.15;61.25;99096.03;6099896;23;20322;-86
2023/03/23 03:56:31;;;;;;;5.07;2.13;;;;;;;14.15;61.79;99102.19;6126013;23;20020;-87
2023/03/23 03:59:13;;;;;;;4.95;2.40;;;;;;;14.16;61.27;99105.69;6125979;23;20021;-86
2023/03/23 04:01:56;;;;;;;3.65;2.15;;;;;;;14.16;61.52;99108.34;6080913;23;20044;-87
2023/03/23 04:04:22;;;;;;;4.70;2.47;;;;;;;14.19;61.60;99105.31;6100969;23;20025;-87
2023/03/23 04:06:48;;;;;;;3.97;2.30;;;;;;;14.21;61.37;99117.50;6101434;23;20035;-86
2023/03/23 04:09:15;;;;;;;5.85;2.30;;;;;;;14.17;61.19;99108.19;6125361;23;20353;-87
2023/03/23 04:11:41;;;;;;;4.63;2.00;;;;;;;14.06;62.28;99120.06;6101300;23;20032;-87
2023/03/23 04:14:29;;;;;;;5.43;2.72;;;;;;;14.01;63.15;99116.28;6038364;23;20473;-87
2023/03/23 04:16:56;;;;;;;6.03;2.42;;;;;;;13.96;63.30;99115.97;6124885;23;20032;-87
2023/03/23 04:19:23;;;;;;;5.13;2.15;;;;;;;13.93;63.91;99106.47;6125850;23;20025;-87
2023/03/23 04:21:49;;;;;;;6.88;2.60;;;;;;;13.94;63.96;99116.13;6101202;23;20039;-87
2023/03/23 04:24:17;;;;;;;8.65;3.20;;;;;;;13.93;63.83;99101.13;6125849;23;20061;-87
2023/03/23 04:26:44;;;;;;;9.55;2.95;;;;;;;13.91;64.02;99108.50;6100580;23;20438;-88
2023/03/23 04:29:19;;;;;;;6.28;2.90;;;;;;;13.95;63.85;99109.00;6103106;23;20017;-87
2023/03/23 04:32:04;;;;;;;11.23;4.60;;;;;;;13.96;63.39;99114.13;6086520;23;20021;-87
2023/03/23 04:34:36;;;;;;;7.10;3.05;;;;;;;13.89;62.84;99111.34;6076759;23;20032;-88
2023/03/23 04:37:01;;;;;;;6.85;2.75;;;;;;;13.95;63.31;99125.00;6124935;23;20349;-86
2023/03/23 04:39:33;;;;;;;8.45;2.63;;;;;;;13.90;63.42;99126.34;6123636;23;20079;-87
2023/03/23 04:42:01;;;;;;;8.82;2.47;;;;;;;13.86;63.88;99130.34;6103073;23;20033;-86
2023/03/23 04:44:53;;;;;;;3.30;2.38;;;;;;;13.84;64.38;99128.88;6127488;23;20459;-87
2023/03/23 04:47:21;;;;;;;7.85;2.60;;;;;;;13.77;64.81;99123.41;6123597;23;20351;-86
2023/03/23 04:49:53;;;;;;;6.13;2.65;;;;;;;13.76;64.47;99115.56;6150824;23;20444;-86
2023/03/23 04:52:28;;;;;;;8.18;2.95;;;;;;;13.76;64.67;99120.91;6126778;23;20152;-82
2023/03/23 04:55:00;;;;;;;4.53;2.70;;;;;;;13.76;64.74;99123.56;6124802;23;20075;-83
2023/03/23 04:57:28;;;;;;;9.88;3.03;;;;;;;13.80;64.71;99122.22;6124425;23;20028;-83
2023/03/23 05:00:16;;;;;;;5.47;2.70;;;;;;;13.81;64.75;99118.53;6131414;23;20021;-83
2023/03/23 05:02:51;;;;;;;5.97;2.90;;;;;;;13.78;64.72;99126.91;6103933;23;20025;-83
2023/03/23 05:05:20;;;;;;;4.00;2.88;;;;;;;13.76;64.74;99119.06;6149224;23;20027;-83
2023/03/23 05:07:46;;;;;;;7.05;2.78;;;;;;;13.76;64.24;99116.41;6123433;23;20032;-83
2023/03/23 05:10:16;;;;;;;6.03;2.72;;;;;;;13.72;64.90;99130.28;6149624;23;20040;-83
2023/03/23 05:12:43;;;;;;;8.93;2.85;;;;;;;13.73;64.87;99119.41;6124800;23;20079;-83
2023/03/23 05:15:12;;;;;;;6.13;2.67;;;;;;;13.68;64.97;99117.25;6125137;23;20471;-84
2023/03/23 05:17:38;;;;;;;5.00;2.92;;;;;;;13.70;65.11;99110.94;6100589;23;20021;-83
2023/03/23 05:20:14;;;;;;;8.63;2.63;;;;;;;13.64;65.82;99115.97;6150746;23;20029;-83
2023/03/23 05:22:44;;;;;;;7.72;3.05;;;;;;;13.67;65.72;99128.13;6124532;23;20462;-83
2023/03/23 05:25:11;;;;;;;10.13;2.92;;;;;;;13.69;65.62;99144.81;6101266;23;20029;-83
2023/03/23 05:27:43;;;;;;;7.35;2.92;;;;;;;13.63;65.67;99135.63;6100743;23;20045;-82
2023/03/23 05:30:21;;;;;;;9.50;3.75;;;;;;;13.61;66.10;99131.47;6081658;23;20103;-83
2023/03/23 05:32:50;;;;;;;11.30;3.28;;;;;;;13.60;66.59;99143.97;6124299;23;20036;-83
2023/03/23 05:35:32;;;;;;;13.57;3.30;;;;;;;13.60;66.42;99157.31;6150917;23;20017;-83
2023/03/23 05:37:59;;;;;;;10.32;3.25;;;;;;;13.58;66.87;99167.31;6125022;23;20033;-83
2023/03/23 05:40:25;;;;;;;13.45;3.90;;;;;;;13.57;66.88;99170.19;6124974;23;20036;-83
2023/03/23 05:42:58;;;;;;;8.35;3.20;;;;;;;13.56;67.29;99182.69;6125684;23;20393;-83
2023/03/23 05:45:43;;;;;;;10.23;3.45;;;;;;;13.52;67.71;99188.53;6151335;23;20025;-82
2023/03/23 05:48:09;;;;;;;7.20;3.03;;;;;;;13.56;67.02;99181.84;6148607;23;20449;-83
2023/03/23 05:50:35;;;;;;;7.57;3.50;;;;;;;13.56;66.66;99176.50;6124800;23;20339;-83
2023/03/23 05:53:04;;;;;;;8.77;3.13;;;;;;;13.57;66.55;99184.34;6077183;23;20027;-82
2023/03/23 05:55:31;;;;;;;3.95;2.83;;;;;;;13.57;67.40;99187.00;6148968;23;20021;-83
2023/03/23 05:58:06;;;;;;;9.00;2.83;;;;;;;13.56;68.10;99196.03;6175163;23;20025;-83
2023/03/23 06:00:36;;;;;;;7.05;3.40;;;;;;;13.53;69.92;99203.53;6123970;23;20088;-83
2023/03/23 06:03:19;;;;;;;;;;;;;;;13.22;73.16;99209.53;6175072;23;20090;-83
2023/03/23 06:05:52;;;;;;;8.15;2.97;;;;;;;13.39;71.32;99205.88;6125989;23;19916;-83
2023/03/23 06:08:26;;;;;;;6.78;3.15;;;;;;;13.39;71.48;99200.56;6103630;23;20017;-83
2023/03/23 06:10:51;;;;;;;7.70;3.17;;;;;;;13.42;72.38;99196.72;6124179;23;20028;-83
2023/03/23 06:13:18;;;;;;;12.70;3.85;;;;;;;13.42;72.43;99191.38;6125060;23;20029;-83
2023/03/23 06:15:49;;;;;;;9.80;3.33;;;;;;;13.44;72.13;99181.38;6124701;23;20457;-83
2023/03/23 06:18:33;;;;;;;10.00;3.15;;;;;;;13.44;72.51;99197.38;6078896;23;21276;-83
2023/03/23 06:21:18;;;;;;;7.00;3.00;;;;;;;13.44;72.88;99200.88;6104594;23;20032;-83
2023/03/23 06:23:52;;;;;;;4.80;3.35;;;;;;;13.51;73.38;99195.72;6125222;23;20441;-83
2023/03/23 06:26:20;;;;;;;5.65;3.05;;;;;;;13.54;73.54;99195.34;6101871;23;20322;-83
2023/03/23 06:28:51;;;;;;;7.82;3.45;;;;;;;13.56;72.68;99192.50;6103127;23;20084;-83
2023/03/23 06:31:19;;;;;;;3.88;3.00;;;;;;;13.56;73.61;99189.84;6125633;23;20024;-83
2023/03/23 06:33:47;;;;;;;9.52;3.65;;;;;;;13.57;73.77;99187.00;6125421;23;20096;-82
2023/03/23 06:36:16;;;;;;;6.95;3.33;;;;;;;13.58;74.34;99186.00;6126781;23;20021;-83
2023/03/23 06:38:55;;;;;;;10.55;3.70;;;;;;;13.61;74.38;99182.16;6126262;23;20457;-83
2023/03/23 06:41:29;;;;;;;9.68;3.47;;;;;;;13.65;73.57;99194.97;6105373;23;20021;-84
2023/03/23 06:43:55;;;;;;;6.28;3.47;;;;;;;13.74;71.90;99197.63;6174827;23;20025;-84
2023/03/23 06:46:26;;;;;;;8.57;2.85;;;;;;;13.75;72.64;99201.97;6127848;23;20021;-83
2023/03/23 06:48:57;;;;;;;9.07;3.80;;;;;;;13.78;73.30;99209.63;6150400;23;20091;-83
2023/03/23 06:51:33;;;;;;;7.53;3.40;;;;;;;13.72;74.56;99199.66;6106047;23;20394;-83
2023/03/23 06:53:58;;;;;;;8.82;3.30;;;;;;;13.73;73.82;99204.78;6125137;23;20476;-83
2023/03/23 06:56:27;;;;;;;8.77;3.55;;;;;;;13.78;74.19;99209.63;6102100;23;20037;-84
2023/03/23 06:58:53;;;;;;;6.93;3.38;;;;;;;13.79;74.50;99212.13;6125930;23;20052;-84
2023/03/23 07:01:20;;;;;;;5.20;3.28;;;;;;;13.84;73.40;99200.91;6102327;23;20021;-85
2023/03/23 07:03:57;;;;;;;5.57;3.17;;;;;;;13.84;73.55;99214.25;6080978;23;20056;-85
2023/03/23 07:06:35;;;;;;;6.15;3.45;;;;;;;13.85;73.57;99215.94;6081539;23;20048;-86
2023/03/23 07:09:01;;;;;;;5.28;3.22;;;;;;;13.91;72.64;99225.91;6101306;23;20029;-86
2023/03/23 07:11:28;;;;;;;6.82;3.33;;;;;;;13.88;72.88;99227.09;6101112;23;20021;-87
2023/03/23 07:13:57;;;;;;;6.07;3.00;;;;;;;13.89;73.37;99238.59;6126754;23;20044;-85
2023/03/23 07:16:23;;;;;;;8.27;3.22;;;;;;;13.91;73.07;99241.94;6077785;23;20017;-86
2023/03/23 07:18:51;;;;;;;10.68;4.20;;;;;;;13.93;72.18;99247.94;6102497;23;20032;-82
2023/03/23 07:21:17;;;;;;;9.20;3.40;;;;;;;13.94;72.52;99246.09;6149599;23;20350;-84
2023/03/23 07:23:43;;;;;;;5.80;3.08;;;;;;;13.97;72.53;99257.28;6101280;23;20361;-86
2023/03/23 07:26:13;;;;;;;6.40;3.15;;;;;;;13.96;72.42;99252.94;6126532;23;20033;-85
2023/03/23 07:28:46;;;;;;;6.55;2.92;;;;;;;13.94;73.23;99254.94;6104425;23;20017;-85
2023/03/23 07:31:36;;;;;;;7.18;3.38;;;;;;;13.94;73.28;99257.59;6113584;23;20337;-85
2023/03/23 07:34:02;;;;;;;5.55;2.95;;;;;;;13.95;73.27;99264.63;6101376;23;20025;-84
2023/03/23 07:36:39;;;;;;;7.60;3.35;;;;;;;13.96;73.35;99268.13;6151428;23;20017;-85
2023/03/23 07:39:07;;;;;;;9.32;3.17;;;;;;;14.03;72.08;99266.44;6150427;23;20433;-84
2023/03/23 07:41:34;;;;;;;9.07;2.90;;;;;;;14.10;70.83;99262.06;6101785;23;20025;-83
2023/03/23 07:44:06;;;;;;;9.10;3.30;;;;;;;14.12;71.50;99270.75;6126796;23;20043;-83
2023/03/23 07:46:35;;;;;;;8.18;2.90;;;;;;;14.16;72.40;99272.06;6127105;23;20016;-83
2023/03/23 07:49:14;;;;;;;11.82;3.10;;;;;;;14.19;72.83;99273.53;6149148;23;20020;-83
2023/03/23 07:51:45;;;;;;;9.00;3.60;;;;;;;14.19;72.74;99277.03;6150785;23;20357;-84
2023/03/23 07:54:14;;;;;;;8.70;3.92;;;;;;;14.22;72.91;99283.88;6125946;23;20024;-83
2023/03/23 07:56:58;;;;;;;9.50;3.63;;;;;;;14.22;73.92;99284.72;6104846;23;20113;-84
2023/03/23 07:59:26;;;;;;;11.23;3.60;;;;;;;14.23;74.15;99298.91;6150898;23;20509;-84
2023/03/23 08:01:53;;;;;;;10.35;3.50;;;;;;;14.23;73.73;99294.41;6101704;23;20103;-83
2023/03/23 08:04:37;;;;;;;7.18;3.70;;;;;;;14.19;72.21;99300.25;6083074;23;20059;-83
2023/03/23 08:07:32;;;;;;;7.00;3.38;;;;;;;14.19;71.53;99311.75;6009218;23;20028;-83
2023/03/23 08:10:18;;;;;;;8.60;3.72;;;;;;;14.10;72.14;99323.47;6083875;23;20023;-81
2023/03/23 08:13:05;;;;;;;7.57;3.10;;;;;;;14.15;72.24;99317.63;6060490;23;20387;-82
2023/03/23 08:15:47;;;;;;;11.88;5.00;;;;;;;14.13;72.94;99335.66;6055576;23;20021;-82
2023/03/23 08:18:26;;;;;;;8.43;3.53;;;;;;;14.15;73.42;99329.16;6079396;23;20108;-80
2023/03/23 08:21:05;;;;;;;12.13;4.03;;;;;;;14.23;73.70;99325.63;6079086;23;20028;-81
2023/03/23 08:23:50;;;;;;;7.18;3.67;;;;;;;14.11;75.45;99330.47;6083316;23;20036;-81
2023/03/23 08:26:30;;;;;;;8.00;3.28;;;;;;;14.17;75.06;99329.81;6150186;23;20457;-81
2023/03/23 08:29:14;;;;;;;9.60;3.33;;;;;;;14.17;75.32;99324.47;6131358;23;20025;-80
2023/03/23 08:31:58;;;;;;;9.23;4.10;;;;;;;14.18;76.33;99328.78;6149625;23;20461;-81
2023/03/23 08:34:42;;;;;;;10.10;3.45;;;;;;;14.22;76.17;99329.28;6176123;23;20071;-80
2023/03/23 08:37:09;;;;;;;9.50;3.55;;;;;;;14.26;76.09;99339.44;6101458;23;20029;-80
2023/03/23 08:39:54;;;;;;;9.93;3.88;;;;;;;14.25;76.37;99337.78;6127227;23;20016;-80
2023/03/23 08:42:29;;;;;;;11.43;3.67;;;;;;;14.26;76.44;99333.28;6147022;23;20021;-81
2023/03/23 08:45:17;;;;;;;10.90;4.05;;;;;;;14.26;76.53;99338.63;6155189;23;20025;-81
2023/03/23 08:48:04;;;;;;;9.60;3.63;;;;;;;14.28;76.14;99332.09;6126437;23;20025;-82
2023/03/23 08:50:41;;;;;;;11.35;4.93;;;;;;;14.28;76.38;99332.09;6055253;23;20333;-82
2023/03/23 08:53:24;;;;;;;13.35;5.40;;;;;;;14.30;76.42;99334.59;6175245;23;20032;-82
2023/03/23 08:56:09;;;;;;;12.50;4.47;;;;;;;14.32;76.55;99343.25;6105998;23;20025;-80
2023/03/23 08:58:54;;;;;;;9.75;4.10;;;;;;;14.35;76.55;99334.94;6154390;23;20032;-81
2023/03/23 09:01:46;;;;;;;12.80;3.90;;;;;;;14.37;76.21;99332.06;6033910;23;20030;-82
2023/03/23 09:04:35;;;;;;;8.02;4.00;;;;;;;14.37;76.15;99332.88;6123233;23;20036;-82
2023/03/23 09:07:19;;;;;;;10.23;4.03;;;;;;;14.39;76.14;99346.09;6106703;23;20357;-82
2023/03/23 09:09:45;;;;;;;11.13;4.80;;;;;;;14.39;76.39;99351.44;6124282;23;20021;-82
2023/03/23 09:12:11;;;;;;;13.85;5.70;;;;;;;14.41;76.21;99339.56;6125099;23;20032;-81
2023/03/23 09:14:38;;;;;;;26.50;6.82;;;;;;;14.45;76.04;99337.38;6124954;23;20028;-82
2023/03/23 09:17:05;;;;;;;13.45;5.43;;;;;;;14.45;75.85;99338.22;6174471;23;20055;-80
2023/03/23 09:19:33;;;;;;;14.73;5.50;;;;;;;14.46;75.74;99328.38;6125001;23;20029;-80
2023/03/23 09:21:59;;;;;;;11.57;6.00;;;;;;;14.52;75.71;99333.84;6124802;23;20044;-80
2023/03/23 09:24:25;;;;;;;13.93;5.57;;;;;;;14.57;75.76;99333.34;6174745;23;20041;-80
2023/03/23 09:26:50;;;;;;;10.57;5.18;;;;;;;14.62;75.75;99338.19;6173418;23;20028;-80
2023/03/23 09:29:16;;;;;;;8.32;4.93;;;;;;;14.66;75.55;99348.34;6123791;23;20025;-80
2023/03/23 09:31:42;;;;;;;9.52;4.15;;;;;;;14.70;75.13;99338.13;6099800;23;20044;-80
2023/03/23 09:34:09;;;;;;;11.65;4.63;;;;;;;14.71;74.86;99348.66;6101069;23;20080;-80
2023/03/23 09:36:40;;;;;;;12.93;5.32;;;;;;;14.70;74.79;99351.50;6149998;23;20025;-80
2023/03/23 09:39:11;;;;;;;16.38;5.00;;;;;;;14.75;74.67;99360.66;6173994;23;20079;-80
2023/03/23 09:42:21;;;;;;;12.77;5.53;;;;;;;14.71;75.01;99361.19;6148997;23;20333;-80
2023/03/23 09:45:06;;;;;;;15.65;5.22;;;;;;;14.66;74.38;99368.91;5940140;23;20023;-80
2023/03/23 09:47:49;;;;;;;15.77;5.35;;;;;;;14.67;73.61;99370.56;6005691;23;20030;-80
2023/03/23 09:50:18;;;;;;;13.35;5.55;;;;;;;14.66;72.99;99380.41;6068093;23;20024;-80
2023/03/23 09:52:55;;;;;;;20.38;5.57;;;;;;;14.58;73.26;99387.63;6150301;23;20021;-80
2023/03/23 09:55:21;;;;;;;13.30;5.13;;;;;;;14.67;73.14;99394.59;6101567;23;20450;-80
2023/03/23 09:58:07;;;;;;;11.70;4.57;;;;;;;14.69;73.01;99387.25;6100265;23;20429;-80
2023/03/23 10:00:41;;;;;;;7.00;3.83;;;;;;;14.63;73.35;99398.63;6127023;23;20036;-80
2023/03/23 10:03:15;;;;;;;11.32;4.60;;;;;;;14.63;73.64;99403.97;6126614;23;20021;-80
2023/03/23 10:05:42;;;;;;;12.82;5.20;;;;;;;14.62;73.61;99400.47;6126614;23;20021;-80
2023/03/23 10:08:18;;;;;;;14.13;4.82;;;;;;;14.58;74.29;99401.84;6101827;23;20017;-81
2023/03/23 10:11:11;;;;;;;13.02;4.53;;;;;;;14.45;75.18;99405.00;6126171;23;20385;-81
2023/03/23 10:13:37;;;;;;;;;;;;;;;14.36;76.11;99398.00;6106991;23;20024;-80
2023/03/23 10:16:17;;;;;;;10.35;4.82;;;;;;;14.47;75.70;99407.50;6126286;23;20288;-80
2023/03/23 10:18:55;;;;;;;25.63;8.68;;;;;;;14.56;74.93;99397.66;6174818;23;20021;-80
2023/03/23 10:21:23;;;;;;;18.73;8.77;;;;;;;14.63;75.12;99401.28;6079012;23;20016;-80
2023/03/23 10:24:11;;;;;;;13.77;5.60;;;;;;;14.53;76.33;99394.31;6150073;23;20017;-80
2023/03/23 10:26:45;;;;;;;13.05;6.10;;;;;;;14.62;76.02;99402.31;6081072;23;20087;-80
2023/03/23 10:29:14;;;;;;;13.45;5.80;;;;;;;14.65;76.40;99400.09;6124751;23;20021;-80
2023/03/23 10:31:46;;;;;;;16.90;6.03;;;;;;;14.65;76.69;99401.97;6150488;23;20025;-80
2023/03/23 10:34:26;;;;;;;12.93;5.87;;;;;;;14.61;77.18;99398.81;6125530;23;20032;-81
2023/03/23 10:37:10;;;;;;;9.70;5.18;;;;;;;14.56;77.88;99393.16;6100600;23;20091;-80
2023/03/23 10:39:48;;;;;;;12.02;4.70;;;;;;;14.56;78.26;99393.16;6101069;23;20453;-80
2023/03/23 10:42:22;;;;;;;10.00;5.60;;;;;;;14.61;77.97;99390.78;6149411;23;20053;-81
2023/03/23 10:44:48;;;;;;;13.15;5.80;;;;;;;14.68;77.95;99386.44;6101505;23;20020;-81
2023/03/23 10:47:15;;;;;;;13.23;6.30;;;;;;;14.68;78.82;99383.75;6174482;23;20137;-80
2023/03/23 10:49:50;;;;;;;17.58;6.63;;;;;;;14.65;81.31;99391.28;6150103;23;20056;-81
2023/03/23 10:52:32;;;;;;;18.13;7.13;;;;;;;14.66;80.40;99388.44;6124887;23;20024;-80
2023/03/23 10:55:12;;;;;;;22.95;7.82;;;;;;;14.72;79.71;99387.72;6064633;23;20025;-81
2023/03/23 10:57:40;;;;;;;10.68;6.38;;;;;;;14.76;79.46;99386.38;6124869;23;20031;-80
2023/03/23 11:00:08;;;;;;;17.00;5.88;;;;;;;14.76;80.12;99372.19;6170864;23;20507;-81
2023/03/23 11:02:47;;;;;;;8.88;5.25;;;;;;;14.73;80.42;99378.72;6174712;23;20028;-81
2023/03/23 11:05:24;;;;;;;10.60;5.47;;;;;;;14.73;81.46;99376.06;6052851;23;20025;-84
2023/03/23 11:07:54;;;;;;;10.07;5.78;;;;;;;14.83;80.43;99372.31;6125335;23;20025;-82
2023/03/23 11:10:26;;;;;;;9.98;5.13;;;;;;;14.86;80.06;99372.81;6126030;23;20029;-82
2023/03/23 11:12:52;;;;;;;9.82;4.78;;;;;;;14.88;80.36;99368.13;6126409;23;20021;-81
2023/03/23 11:15:39;;;;;;;10.15;5.13;;;;;;;14.75;83.19;99362.50;6126069;23;20084;-82
2023/03/23 11:18:26;;;;;;;7.85;4.95;;;;;;;14.91;80.93;99361.59;6122039;23;20091;-82
2023/03/23 11:20:57;;;;;;;13.50;5.13;;;;;;;14.92;81.40;99369.44;6128127;23;20024;-83
2023/03/23 11:23:25;;;;;;;7.03;4.07;;;;;;;14.98;80.83;99363.41;6076585;23;20363;-82
2023/03/23 11:26:17;;;;;;;10.65;4.75;;;;;;;14.92;81.08;99372.09;6149564;23;20055;-83
2023/03/23 11:28:51;;;;;;;7.45;4.20;;;;;;;14.89;80.45;99372.47;6152418;23;20032;-81
2023/03/23 11:31:22;;;;;;;6.47;3.83;;;;;;;14.85;80.72;99372.97;6149229;23;20025;-81
2023/03/23 11:33:58;;;;;;;9.35;4.57;;;;;;;14.78;81.48;99375.50;6125331;23;20062;-81
2023/03/23 11:36:38;;;;;;;10.02;3.58;;;;;;;14.74;80.86;99379.56;6100561;23;20025;-81
2023/03/23 11:39:26;;;;;;;7.32;4.07;;;;;;;14.69;81.37;99395.28;6123783;23;20033;-81
2023/03/23 11:41:52;;;;;;;5.25;3.15;;;;;;;14.80;80.09;99391.38;6105195;23;20025;-81
2023/03/23 11:44:18;;;;;;;8.25;3.13;;;;;;;14.74;79.59;99383.06;6124724;23;20078;-82
2023/03/23 11:46:49;;;;;;;5.13;3.20;;;;;;;14.70;79.71;99391.59;6149793;23;20394;-81
2023/03/23 11:50:06;;;;;;;8.10;3.20;;;;;;;14.62;79.57;99408.47;6126317;23;20024;-82
2023/03/23 11:53:20;;;;;;;6.20;3.08;;;;;;;14.60;79.43;99397.13;5981552;23;20467;-81
2023/03/23 11:55:45;;;;;;;4.88;2.42;;;;;;;14.66;78.78;99414.34;5834308;23;20032;-81
2023/03/23 11:58:14;;;;;;;4.95;2.47;;;;;;;14.68;78.80;99412.28;6143346;23;20413;-81